sensor_id;sensor_type;location;lat;lon;timestamp;pressure;altitude;pressure_sealevel;temperature;humidity
19751;BME280;4663;49.120;9.730;2023-02-13T00:02:23;100074.38;;;-2.45;91.25
19751;BME280;4663;49.120;9.730;2023-02-13T00:04:48;100077.63;;;-2.64;91.70
19751;BME280;4663;49.120;9.730;2023-02-13T00:07:14;100076.78;;;-2.66;91.49
19751;BME280;4663;49.120;9.730;2023-02-13T00:09:39;100073.63;;;-2.50;91.18
19751;BME280;4663;49.120;9.730;2023-02-13T00:12:06;100073.66;;;-2.79;91.69
19751;BME280;4663;49.120;9.730;2023-02-13T00:14:36;100073.50;;;-2.72;91.57
19751;BME280;4663;49.120;9.730;2023-02-13T00:17:03;100071.81;;;-3.04;91.16
19751;BME280;4663;49.120;9.730;2023-02-13T00:19:28;100077.09;;;-3.04;91.82
19751;BME280;4663;49.120;9.730;2023-02-13T00:21:54;100067.69;;;-3.13;91.57
19751;BME280;4663;49.120;9.730;2023-02-13T00:24:19;100072.50;;;-2.97;91.29
19751;BME280;4663;49.120;9.730;2023-02-13T00:26:45;100078.31;;;-2.85;90.38
19751;BME280;4663;49.120;9.730;2023-02-13T00:29:10;100080.50;;;-2.98;91.13
19751;BME280;4663;49.120;9.730;2023-02-13T00:31:35;100080.28;;;-2.92;90.59
19751;BME280;4663;49.120;9.730;2023-02-13T00:34:01;100067.69;;;-2.84;89.24
19751;BME280;4663;49.120;9.730;2023-02-13T00:36:26;100069.53;;;-2.86;89.09
19751;BME280;4663;49.120;9.730;2023-02-13T00:38:52;100069.34;;;-2.81;89.47
19751;BME280;4663;49.120;9.730;2023-02-13T00:41:18;100074.69;;;-2.83;90.12
19751;BME280;4663;49.120;9.730;2023-02-13T00:43:45;100076.53;;;-2.85;90.76
19751;BME280;4663;49.120;9.730;2023-02-13T00:46:10;100067.91;;;-2.90;90.66
19751;BME280;4663;49.120;9.730;2023-02-13T00:48:36;100079.28;;;-2.88;90.65
19751;BME280;4663;49.120;9.730;2023-02-13T00:51:03;100065.75;;;-3.06;90.99
19751;BME280;4663;49.120;9.730;2023-02-13T00:53:29;100060.91;;;-2.93;90.94
19751;BME280;4663;49.120;9.730;2023-02-13T00:55:54;100065.78;;;-3.07;90.82
19751;BME280;4663;49.120;9.730;2023-02-13T00:58:19;100061.81;;;-2.94;90.79
19751;BME280;4663;49.120;9.730;2023-02-13T01:00:46;100065.25;;;-2.90;90.28
19751;BME280;4663;49.120;9.730;2023-02-13T01:03:15;100064.47;;;-2.94;90.75
19751;BME280;4663;49.120;9.730;2023-02-13T01:05:42;100065.31;;;-2.92;90.62
19751;BME280;4663;49.120;9.730;2023-02-13T01:08:08;100060.50;;;-3.07;90.31
19751;BME280;4663;49.120;9.730;2023-02-13T01:10:33;100065.28;;;-3.20;91.44
19751;BME280;4663;49.120;9.730;2023-02-13T01:12:59;100057.59;;;-3.00;90.43
19751;BME280;4663;49.120;9.730;2023-02-13T01:15:24;100058.81;;;-2.83;90.43
19751;BME280;4663;49.120;9.730;2023-02-13T01:17:52;100059.44;;;-3.02;90.00
19751;BME280;4663;49.120;9.730;2023-02-13T01:20:18;100057.69;;;-3.03;90.47
19751;BME280;4663;49.120;9.730;2023-02-13T01:22:44;100057.69;;;-3.03;90.41
19751;BME280;4663;49.120;9.730;2023-02-13T01:25:09;100062.13;;;-3.03;91.19
19751;BME280;4663;49.120;9.730;2023-02-13T01:27:35;100062.84;;;-2.98;90.07
19751;BME280;4663;49.120;9.730;2023-02-13T01:30:05;100053.94;;;-2.95;90.25
19751;BME280;4663;49.120;9.730;2023-02-13T01:32:36;100057.81;;;-3.06;90.62
19751;BME280;4663;49.120;9.730;2023-02-13T01:35:01;100051.78;;;-3.11;90.24
19751;BME280;4663;49.120;9.730;2023-02-13T01:37:26;100056.19;;;-3.10;90.55
19751;BME280;4663;49.120;9.730;2023-02-13T01:39:52;100049.91;;;-3.07;90.05
19751;BME280;4663;49.120;9.730;2023-02-13T01:42:26;100047.66;;;-3.20;90.05
19751;BME280;4663;49.120;9.730;2023-02-13T01:45:18;100053.38;;;-3.05;89.94
19751;BME280;4663;49.120;9.730;2023-02-13T01:47:51;100045.31;;;-3.01;89.62
19751;BME280;4663;49.120;9.730;2023-02-13T01:52:47;100047.94;;;-3.01;89.38
19751;BME280;4663;49.120;9.730;2023-02-13T01:55:15;100042.13;;;-3.12;89.70
19751;BME280;4663;49.120;9.730;2023-02-13T01:57:44;100029.53;;;-3.04;88.87
19751;BME280;4663;49.120;9.730;2023-02-13T02:00:13;100037.75;;;-3.13;88.45
19751;BME280;4663;49.120;9.730;2023-02-13T02:02:43;100027.28;;;-3.16;88.28
19751;BME280;4663;49.120;9.730;2023-02-13T02:05:10;100028.47;;;-3.27;88.92
19751;BME280;4663;49.120;9.730;2023-02-13T02:07:37;100027.16;;;-3.11;88.16
19751;BME280;4663;49.120;9.730;2023-02-13T02:10:17;100028.63;;;-3.31;89.32
19751;BME280;4663;49.120;9.730;2023-02-13T02:12:59;100025.69;;;-3.22;89.79
19751;BME280;4663;49.120;9.730;2023-02-13T02:15:27;100021.28;;;-3.21;89.44
19751;BME280;4663;49.120;9.730;2023-02-13T02:17:53;100018.47;;;-3.17;88.85
19751;BME280;4663;49.120;9.730;2023-02-13T02:35:08;100025.31;;;-3.68;90.39
19751;BME280;4663;49.120;9.730;2023-02-13T02:38:01;100023.16;;;-4.15;91.35
19751;BME280;4663;49.120;9.730;2023-02-13T02:46:10;100019.81;;;-3.60;90.08
19751;BME280;4663;49.120;9.730;2023-02-13T02:49:20;100017.28;;;-3.95;90.65
19751;BME280;4663;49.120;9.730;2023-02-13T02:52:13;100019.09;;;-3.96;90.76
19751;BME280;4663;49.120;9.730;2023-02-13T02:57:34;100015.78;;;-4.04;89.76
19751;BME280;4663;49.120;9.730;2023-02-13T03:00:23;100026.19;;;-3.98;89.07
19751;BME280;4663;49.120;9.730;2023-02-13T03:03:16;100023.56;;;-3.99;88.71
19751;BME280;4663;49.120;9.730;2023-02-13T03:06:03;100015.84;;;-4.06;88.13
19751;BME280;4663;49.120;9.730;2023-02-13T03:08:37;100028.28;;;-4.11;88.55
19751;BME280;4663;49.120;9.730;2023-02-13T03:11:23;100018.72;;;-4.15;88.48
19751;BME280;4663;49.120;9.730;2023-02-13T03:14:09;100027.81;;;-4.25;88.70
19751;BME280;4663;49.120;9.730;2023-02-13T03:16:36;100025.59;;;-4.09;88.62
19751;BME280;4663;49.120;9.730;2023-02-13T03:19:29;100031.84;;;-4.12;88.30
19751;BME280;4663;49.120;9.730;2023-02-13T03:27:49;100034.81;;;-4.24;88.29
19751;BME280;4663;49.120;9.730;2023-02-13T03:41:51;100039.34;;;-3.96;88.12
19751;BME280;4663;49.120;9.730;2023-02-13T03:44:31;100041.97;;;-3.96;88.30
19751;BME280;4663;49.120;9.730;2023-02-13T03:46:59;100039.75;;;-4.12;88.76
19751;BME280;4663;49.120;9.730;2023-02-13T03:49:34;100052.28;;;-4.20;89.02
19751;BME280;4663;49.120;9.730;2023-02-13T03:54:51;100051.97;;;-4.08;89.33
19751;BME280;4663;49.120;9.730;2023-02-13T03:57:39;100049.00;;;-3.97;88.99
19751;BME280;4663;49.120;9.730;2023-02-13T04:00:27;100052.25;;;-3.87;88.82
19751;BME280;4663;49.120;9.730;2023-02-13T04:03:00;100052.09;;;-3.81;88.78
19751;BME280;4663;49.120;9.730;2023-02-13T04:05:32;100053.19;;;-3.88;88.90
19751;BME280;4663;49.120;9.730;2023-02-13T04:08:00;100056.13;;;-3.99;89.12
19751;BME280;4663;49.120;9.730;2023-02-13T04:10:30;100070.06;;;-3.94;89.04
19751;BME280;4663;49.120;9.730;2023-02-13T04:13:09;100069.75;;;-3.83;88.21
19751;BME280;4663;49.120;9.730;2023-02-13T04:15:44;100071.94;;;-3.67;88.12
19751;BME280;4663;49.120;9.730;2023-02-13T04:18:17;100065.91;;;-3.71;87.44
19751;BME280;4663;49.120;9.730;2023-02-13T04:20:45;100073.00;;;-3.73;87.83
19751;BME280;4663;49.120;9.730;2023-02-13T04:23:11;100070.13;;;-3.65;87.86
19751;BME280;4663;49.120;9.730;2023-02-13T04:25:38;100077.19;;;-3.66;88.79
19751;BME280;4663;49.120;9.730;2023-02-13T04:28:04;100077.22;;;-3.67;88.54
19751;BME280;4663;49.120;9.730;2023-02-13T04:30:31;100082.47;;;-3.66;88.91
19751;BME280;4663;49.120;9.730;2023-02-13T04:32:56;100083.66;;;-3.76;89.02
19751;BME280;4663;49.120;9.730;2023-02-13T04:35:22;100084.25;;;-3.66;89.02
19751;BME280;4663;49.120;9.730;2023-02-13T04:37:47;100075.16;;;-3.56;88.46
19751;BME280;4663;49.120;9.730;2023-02-13T04:40:12;100067.81;;;-3.46;87.98
19751;BME280;4663;49.120;9.730;2023-02-13T04:42:38;100074.78;;;-3.43;87.83
19751;BME280;4663;49.120;9.730;2023-02-13T04:45:03;100074.22;;;-3.55;88.42
19751;BME280;4663;49.120;9.730;2023-02-13T04:47:29;100071.34;;;-3.45;88.42
19751;BME280;4663;49.120;9.730;2023-02-13T04:49:54;100065.88;;;-3.41;88.47
19751;BME280;4663;49.120;9.730;2023-02-13T04:52:19;100065.75;;;-3.36;88.26
19751;BME280;4663;49.120;9.730;2023-02-13T04:54:45;100072.97;;;-3.41;88.47
19751;BME280;4663;49.120;9.730;2023-02-13T04:57:10;100076.03;;;-3.55;89.02
19751;BME280;4663;49.120;9.730;2023-02-13T04:59:36;100079.97;;;-3.40;89.77
19751;BME280;4663;49.120;9.730;2023-02-13T05:02:01;100080.25;;;-3.49;89.88
19751;BME280;4663;49.120;9.730;2023-02-13T05:04:27;100078.41;;;-3.47;89.77
19751;BME280;4663;49.120;9.730;2023-02-13T05:06:53;100080.25;;;-3.49;89.81
19751;BME280;4663;49.120;9.730;2023-02-13T05:09:19;100082.91;;;-3.49;89.68
19751;BME280;4663;49.120;9.730;2023-02-13T05:11:44;100085.34;;;-3.43;89.33
19751;BME280;4663;49.120;9.730;2023-02-13T05:14:09;100084.38;;;-3.41;89.40
19751;BME280;4663;49.120;9.730;2023-02-13T05:16:35;100081.81;;;-3.42;89.61
19751;BME280;4663;49.120;9.730;2023-02-13T05:19:01;100087.19;;;-3.45;89.77
19751;BME280;4663;49.120;9.730;2023-02-13T05:21:26;100083.16;;;-3.29;89.22
19751;BME280;4663;49.120;9.730;2023-02-13T05:24:10;100082.41;;;-3.32;89.16
19751;BME280;4663;49.120;9.730;2023-02-13T05:26:36;100080.47;;;-3.27;88.83
19751;BME280;4663;49.120;9.730;2023-02-13T05:29:01;100082.13;;;-3.23;88.98
19751;BME280;4663;49.120;9.730;2023-02-13T05:31:57;100088.44;;;-3.29;88.91
19751;BME280;4663;49.120;9.730;2023-02-13T05:34:25;100091.84;;;-3.25;88.18
19751;BME280;4663;49.120;9.730;2023-02-13T05:36:51;100084.88;;;-3.28;88.50
19751;BME280;4663;49.120;9.730;2023-02-13T05:39:16;100083.06;;;-3.26;88.39
19751;BME280;4663;49.120;9.730;2023-02-13T05:41:43;100091.91;;;-3.27;89.29
19751;BME280;4663;49.120;9.730;2023-02-13T05:44:09;100084.50;;;-3.15;89.17
19751;BME280;4663;49.120;9.730;2023-02-13T05:46:39;100086.31;;;-3.16;88.73
19751;BME280;4663;49.120;9.730;2023-02-13T05:49:06;100080.69;;;-3.05;88.28
19751;BME280;4663;49.120;9.730;2023-02-13T05:51:31;100073.84;;;-3.12;88.18
19751;BME280;4663;49.120;9.730;2023-02-13T05:53:57;100079.22;;;-3.15;87.70
19751;BME280;4663;49.120;9.730;2023-02-13T05:56:23;100083.38;;;-3.36;89.21
19751;BME280;4663;49.120;9.730;2023-02-13T05:58:53;100084.25;;;-3.36;90.12
19751;BME280;4663;49.120;9.730;2023-02-13T06:01:19;100090.16;;;-3.28;89.72
19751;BME280;4663;49.120;9.730;2023-02-13T06:03:45;100080.44;;;-3.26;88.49
19751;BME280;4663;49.120;9.730;2023-02-13T06:06:10;100086.53;;;-3.23;88.97
19751;BME280;4663;49.120;9.730;2023-02-13T06:08:35;100084.81;;;-3.24;89.88
19751;BME280;4663;49.120;9.730;2023-02-13T06:11:01;100079.34;;;-3.18;88.93
19751;BME280;4663;49.120;9.730;2023-02-13T06:13:27;100086.13;;;-3.11;88.96
19751;BME280;4663;49.120;9.730;2023-02-13T06:15:52;100082.78;;;-3.16;88.72
19751;BME280;4663;49.120;9.730;2023-02-13T06:18:18;100081.91;;;-3.17;88.47
19751;BME280;4663;49.120;9.730;2023-02-13T06:20:43;100091.44;;;-3.11;88.73
19751;BME280;4663;49.120;9.730;2023-02-13T06:23:09;100089.78;;;-3.15;87.92
19751;BME280;4663;49.120;9.730;2023-02-13T06:25:36;100089.78;;;-3.15;88.91
19751;BME280;4663;49.120;9.730;2023-02-13T06:28:02;100100.56;;;-3.21;89.33
19751;BME280;4663;49.120;9.730;2023-02-13T06:30:28;100094.31;;;-3.19;89.84
19751;BME280;4663;49.120;9.730;2023-02-13T06:32:54;100096.03;;;-3.18;89.75
19751;BME280;4663;49.120;9.730;2023-02-13T06:35:19;100104.59;;;-3.38;90.54
19751;BME280;4663;49.120;9.730;2023-02-13T06:37:45;100094.41;;;-3.22;90.54
19751;BME280;4663;49.120;9.730;2023-02-13T06:40:12;100095.06;;;-3.15;89.08
19751;BME280;4663;49.120;9.730;2023-02-13T06:42:38;100100.56;;;-3.21;90.01
19751;BME280;4663;49.120;9.730;2023-02-13T06:45:03;100099.56;;;-3.17;89.94
19751;BME280;4663;49.120;9.730;2023-02-13T06:47:29;100094.69;;;-3.03;89.40
19751;BME280;4663;49.120;9.730;2023-02-13T06:49:54;100102.53;;;-3.00;89.54
19751;BME280;4663;49.120;9.730;2023-02-13T06:52:19;100109.59;;;-2.98;90.00
19751;BME280;4663;49.120;9.730;2023-02-13T06:54:45;100103.28;;;-2.94;89.60
19751;BME280;4663;49.120;9.730;2023-02-13T06:57:10;100111.22;;;-2.94;89.81
19751;BME280;4663;49.120;9.730;2023-02-13T06:59:35;100112.28;;;-3.00;90.33
19751;BME280;4663;49.120;9.730;2023-02-13T07:02:01;100108.75;;;-3.01;89.44
19751;BME280;4663;49.120;9.730;2023-02-13T07:04:26;100110.00;;;-2.84;89.66
19751;BME280;4663;49.120;9.730;2023-02-13T07:06:55;100110.78;;;-2.80;89.48
19751;BME280;4663;49.120;9.730;2023-02-13T07:09:21;100115.19;;;-2.81;88.57
19751;BME280;4663;49.120;9.730;2023-02-13T07:11:47;100111.53;;;-2.77;89.02
19751;BME280;4663;49.120;9.730;2023-02-13T07:14:12;100115.28;;;-2.84;89.54
19751;BME280;4663;49.120;9.730;2023-02-13T07:16:37;100117.13;;;-2.86;90.03
19751;BME280;4663;49.120;9.730;2023-02-13T07:19:03;100125.50;;;-2.73;89.33
19751;BME280;4663;49.120;9.730;2023-02-13T07:21:28;100121.00;;;-2.69;88.95
19751;BME280;4663;49.120;9.730;2023-02-13T07:23:53;100123.06;;;-2.79;89.81
19751;BME280;4663;49.120;9.730;2023-02-13T07:26:19;100118.75;;;-2.82;90.19
19751;BME280;4663;49.120;9.730;2023-02-13T07:28:44;100123.34;;;-3.17;92.05
19751;BME280;4663;49.120;9.730;2023-02-13T07:31:10;100120.16;;;-2.71;90.54
19751;BME280;4663;49.120;9.730;2023-02-13T07:33:35;100123.75;;;-2.72;90.50
19751;BME280;4663;49.120;9.730;2023-02-13T07:36:01;100120.69;;;-2.60;90.00
19751;BME280;4663;49.120;9.730;2023-02-13T07:38:28;100118.06;;;-2.60;90.06
19751;BME280;4663;49.120;9.730;2023-02-13T07:41:00;100123.84;;;-2.76;90.94
19751;BME280;4663;49.120;9.730;2023-02-13T07:43:27;100127.00;;;-2.64;90.27
19751;BME280;4663;49.120;9.730;2023-02-13T07:45:53;100127.72;;;-2.59;90.52
19751;BME280;4663;49.120;9.730;2023-02-13T07:48:22;100130.03;;;-2.48;89.66
19751;BME280;4663;49.120;9.730;2023-02-13T07:50:48;100120.69;;;-2.33;89.33
19751;BME280;4663;49.120;9.730;2023-02-13T07:53:13;100118.09;;;-2.34;89.00
19751;BME280;4663;49.120;9.730;2023-02-13T07:55:39;100124.72;;;-2.21;88.92
19751;BME280;4663;49.120;9.730;2023-02-13T07:58:04;100117.91;;;-2.28;88.23
19751;BME280;4663;49.120;9.730;2023-02-13T08:00:30;100124.78;;;-2.23;88.75
19751;BME280;4663;49.120;9.730;2023-02-13T08:02:59;100120.28;;;-2.20;88.34
19751;BME280;4663;49.120;9.730;2023-02-13T08:05:24;100118.34;;;-2.15;88.58
19751;BME280;4663;49.120;9.730;2023-02-13T08:07:50;100118.88;;;-2.05;88.02
19751;BME280;4663;49.120;9.730;2023-02-13T08:10:16;100120.59;;;-2.03;88.12
19751;BME280;4663;49.120;9.730;2023-02-13T08:13:00;100119.75;;;-2.05;87.49
19751;BME280;4663;49.120;9.730;2023-02-13T08:15:25;100123.88;;;-1.96;87.66
19751;BME280;4663;49.120;9.730;2023-02-13T08:17:51;100126.03;;;-1.82;88.05
19751;BME280;4663;49.120;9.730;2023-02-13T08:20:17;100124.91;;;-1.75;87.66
19751;BME280;4663;49.120;9.730;2023-02-13T08:22:43;100118.78;;;-1.77;87.86
19751;BME280;4663;49.120;9.730;2023-02-13T08:25:08;100123.97;;;-1.74;87.24
19751;BME280;4663;49.120;9.730;2023-02-13T08:27:34;100122.59;;;-1.60;87.05
19751;BME280;4663;49.120;9.730;2023-02-13T08:29:59;100114.00;;;-1.67;87.05
19751;BME280;4663;49.120;9.730;2023-02-13T08:32:26;100113.38;;;-1.74;87.47
19751;BME280;4663;49.120;9.730;2023-02-13T08:34:51;100106.47;;;-1.78;87.35
19751;BME280;4663;49.120;9.730;2023-02-13T08:37:17;100115.88;;;-1.94;88.34
19751;BME280;4663;49.120;9.730;2023-02-13T08:39:42;100105.63;;;-1.80;88.44
19751;BME280;4663;49.120;9.730;2023-02-13T08:42:08;100112.41;;;-1.97;88.71
19751;BME280;4663;49.120;9.730;2023-02-13T08:44:33;100109.91;;;-1.52;88.54
19751;BME280;4663;49.120;9.730;2023-02-13T08:46:59;100127.06;;;-1.37;87.99
19751;BME280;4663;49.120;9.730;2023-02-13T08:49:28;100114.66;;;-1.60;87.72
19751;BME280;4663;49.120;9.730;2023-02-13T08:51:54;100117.19;;;-1.33;87.83
19751;BME280;4663;49.120;9.730;2023-02-13T08:54:19;100127.31;;;-1.21;87.95
19751;BME280;4663;49.120;9.730;2023-02-13T08:56:44;100118.03;;;-1.09;87.05
19751;BME280;4663;49.120;9.730;2023-02-13T08:59:10;100119.72;;;-1.06;86.93
19751;BME280;4663;49.120;9.730;2023-02-13T09:01:35;100135.91;;;-0.90;87.15
19751;BME280;4663;49.120;9.730;2023-02-13T09:04:00;100129.06;;;-1.20;86.98
19751;BME280;4663;49.120;9.730;2023-02-13T09:06:26;100121.75;;;-1.37;86.90
19751;BME280;4663;49.120;9.730;2023-02-13T09:08:52;100121.50;;;-1.30;87.56
19751;BME280;4663;49.120;9.730;2023-02-13T09:11:18;100127.44;;;-1.24;87.45
19751;BME280;4663;49.120;9.730;2023-02-13T09:13:44;100126.84;;;-1.08;87.95
19751;BME280;4663;49.120;9.730;2023-02-13T09:16:10;100128.94;;;-1.16;87.50
19751;BME280;4663;49.120;9.730;2023-02-13T09:18:35;100119.25;;;-1.17;87.47
19751;BME280;4663;49.120;9.730;2023-02-13T09:21:06;100124.88;;;-1.25;88.64
19751;BME280;4663;49.120;9.730;2023-02-13T09:23:34;100128.09;;;-0.93;88.46
19751;BME280;4663;49.120;9.730;2023-02-13T09:26:01;100120.06;;;-1.15;88.20
19751;BME280;4663;49.120;9.730;2023-02-13T09:28:28;100127.28;;;-0.73;88.18
19751;BME280;4663;49.120;9.730;2023-02-13T09:30:53;100122.19;;;-0.34;86.77
19751;BME280;4663;49.120;9.730;2023-02-13T09:33:19;100125.66;;;-0.32;86.68
19751;BME280;4663;49.120;9.730;2023-02-13T09:35:44;100130.47;;;-0.64;86.26
19751;BME280;4663;49.120;9.730;2023-02-13T09:38:10;100130.69;;;-0.69;85.88
19751;BME280;4663;49.120;9.730;2023-02-13T09:43:17;100133.91;;;-0.61;86.11
19751;BME280;4663;49.120;9.730;2023-02-13T09:45:47;100130.06;;;-0.10;85.93
19751;BME280;4663;49.120;9.730;2023-02-13T09:48:23;100139.88;;;-0.56;85.76
19751;BME280;4663;49.120;9.730;2023-02-13T09:50:52;100136.78;;;-0.89;86.15
19751;BME280;4663;49.120;9.730;2023-02-13T09:53:21;100126.94;;;-0.20;87.28
19751;BME280;4663;49.120;9.730;2023-02-13T09:56:16;100126.06;;;0.21;86.12
19751;BME280;4663;49.120;9.730;2023-02-13T09:58:45;100121.44;;;-0.15;85.11
19751;BME280;4663;49.120;9.730;2023-02-13T10:01:33;100127.00;;;-0.22;85.45
19751;BME280;4663;49.120;9.730;2023-02-13T10:06:45;100122.44;;;0.43;84.91
19751;BME280;4663;49.120;9.730;2023-02-13T10:09:35;100125.84;;;0.85;84.25
19751;BME280;4663;49.120;9.730;2023-02-13T10:14:45;100121.63;;;1.74;82.63
19751;BME280;4663;49.120;9.730;2023-02-13T10:18:01;100109.22;;;2.26;80.93
19751;BME280;4663;49.120;9.730;2023-02-13T10:20:26;100113.63;;;2.61;79.34
19751;BME280;4663;49.120;9.730;2023-02-13T10:28:42;100093.47;;;3.36;75.58
19751;BME280;4663;49.120;9.730;2023-02-13T10:31:17;100100.25;;;3.41;77.31
19751;BME280;4663;49.120;9.730;2023-02-13T10:33:51;100088.69;;;3.57;74.52
19751;BME280;4663;49.120;9.730;2023-02-13T10:36:20;100095.03;;;3.24;76.36
19751;BME280;4663;49.120;9.730;2023-02-13T10:39:08;100082.22;;;4.06;73.36
19751;BME280;4663;49.120;9.730;2023-02-13T10:41:49;100083.63;;;3.83;74.91
19751;BME280;4663;49.120;9.730;2023-02-13T10:44:47;100079.66;;;4.19;73.02
19751;BME280;4663;49.120;9.730;2023-02-13T11:03:19;100056.28;;;6.16;71.86
19751;BME280;4663;49.120;9.730;2023-02-13T11:05:45;100029.31;;;5.79;68.66
19751;BME280;4663;49.120;9.730;2023-02-13T11:10:41;100030.69;;;6.23;71.86
19751;BME280;4663;49.120;9.730;2023-02-13T11:13:21;100029.44;;;6.16;70.38
19751;BME280;4663;49.120;9.730;2023-02-13T11:15:59;100021.34;;;6.42;69.05
19751;BME280;4663;49.120;9.730;2023-02-13T11:18:28;100009.22;;;6.87;67.24
19751;BME280;4663;49.120;9.730;2023-02-13T11:21:13;100021.44;;;6.66;67.20
19751;BME280;4663;49.120;9.730;2023-02-13T11:23:52;100001.38;;;6.46;65.85
19751;BME280;4663;49.120;9.730;2023-02-13T11:26:30;100020.25;;;6.95;67.64
19751;BME280;4663;49.120;9.730;2023-02-13T11:28:59;99990.59;;;6.22;64.98
19751;BME280;4663;49.120;9.730;2023-02-13T11:31:34;100018.03;;;6.51;67.04
19751;BME280;4663;49.120;9.730;2023-02-13T11:34:26;99996.91;;;6.71;65.07
19751;BME280;4663;49.120;9.730;2023-02-13T11:37:07;99995.03;;;6.47;64.50
19751;BME280;4663;49.120;9.730;2023-02-13T11:39:37;100011.63;;;7.03;66.47
19751;BME280;4663;49.120;9.730;2023-02-13T11:42:12;100012.84;;;7.35;67.05
19751;BME280;4663;49.120;9.730;2023-02-13T11:44:40;100003.31;;;7.30;65.88
19751;BME280;4663;49.120;9.730;2023-02-13T11:47:06;99986.19;;;6.96;64.39
19751;BME280;4663;49.120;9.730;2023-02-13T11:49:35;100013.22;;;7.30;66.13
19751;BME280;4663;49.120;9.730;2023-02-13T11:52:24;100013.50;;;7.14;66.51
19751;BME280;4663;49.120;9.730;2023-02-13T11:54:57;100005.38;;;7.27;65.91
19751;BME280;4663;49.120;9.730;2023-02-13T11:57:36;99968.44;;;7.53;62.73
19751;BME280;4663;49.120;9.730;2023-02-13T12:00:37;99999.00;;;6.92;64.62
19751;BME280;4663;49.120;9.730;2023-02-13T12:03:27;99988.75;;;6.22;64.91
19751;BME280;4663;49.120;9.730;2023-02-13T12:08:36;99989.97;;;5.79;65.92
19751;BME280;4663;49.120;9.730;2023-02-13T12:13:37;99979.31;;;6.17;64.82
19751;BME280;4663;49.120;9.730;2023-02-13T12:16:34;99984.06;;;5.74;65.41
19751;BME280;4663;49.120;9.730;2023-02-13T12:19:06;99991.34;;;6.11;66.30
19751;BME280;4663;49.120;9.730;2023-02-13T12:21:59;99978.41;;;5.92;65.44
19751;BME280;4663;49.120;9.730;2023-02-13T12:25:28;99966.81;;;5.65;65.20
19751;BME280;4663;49.120;9.730;2023-02-13T12:30:37;99964.56;;;5.59;64.81
19751;BME280;4663;49.120;9.730;2023-02-13T12:33:11;99971.28;;;5.26;65.56
19751;BME280;4663;49.120;9.730;2023-02-13T12:36:53;99968.97;;;5.99;64.32
19751;BME280;4663;49.120;9.730;2023-02-13T12:44:41;99963.28;;;5.78;64.00
19751;BME280;4663;49.120;9.730;2023-02-13T12:47:52;99954.78;;;5.32;63.95
19751;BME280;4663;49.120;9.730;2023-02-13T12:50:50;99972.56;;;5.46;65.00
19751;BME280;4663;49.120;9.730;2023-02-13T12:56:07;99965.38;;;4.93;65.19
19751;BME280;4663;49.120;9.730;2023-02-13T12:58:56;99973.25;;;5.62;65.02
19751;BME280;4663;49.120;9.730;2023-02-13T13:22:49;99957.06;;;5.90;65.53
19751;BME280;4663;49.120;9.730;2023-02-13T13:28:28;99969.06;;;5.58;66.59
19751;BME280;4663;49.120;9.730;2023-02-13T13:30:57;99962.72;;;5.46;66.35
19751;BME280;4663;49.120;9.730;2023-02-13T13:33:24;99955.66;;;5.45;66.72
19751;BME280;4663;49.120;9.730;2023-02-13T13:38:50;99958.63;;;5.15;67.09
19751;BME280;4663;49.120;9.730;2023-02-13T13:41:37;99961.16;;;5.16;67.14
19751;BME280;4663;49.120;9.730;2023-02-13T13:44:13;99964.00;;;4.72;67.59
19751;BME280;4663;49.120;9.730;2023-02-13T13:54:51;99944.97;;;5.05;67.62
19751;BME280;4663;49.120;9.730;2023-02-13T13:57:18;99944.53;;;4.70;68.10
19751;BME280;4663;49.120;9.730;2023-02-13T14:07:40;99941.44;;;4.77;68.20
19751;BME280;4663;49.120;9.730;2023-02-13T14:20:42;99952.00;;;4.65;69.81
19751;BME280;4663;49.120;9.730;2023-02-13T14:28:42;99950.94;;;4.26;69.50
19751;BME280;4663;49.120;9.730;2023-02-13T14:36:42;99943.41;;;4.18;69.05
19751;BME280;4663;49.120;9.730;2023-02-13T14:44:17;99938.94;;;4.46;69.31
19751;BME280;4663;49.120;9.730;2023-02-13T14:46:45;99943.31;;;4.05;68.48
19751;BME280;4663;49.120;9.730;2023-02-13T14:49:18;99933.59;;;4.04;68.93
19751;BME280;4663;49.120;9.730;2023-02-13T14:51:48;99937.69;;;3.95;69.33
19751;BME280;4663;49.120;9.730;2023-02-13T14:56:39;99937.81;;;3.79;69.66
19751;BME280;4663;49.120;9.730;2023-02-13T15:04:45;99943.13;;;3.64;70.55
19751;BME280;4663;49.120;9.730;2023-02-13T15:07:17;99937.03;;;3.62;70.41
19751;BME280;4663;49.120;9.730;2023-02-13T15:09:49;99933.28;;;3.50;70.54
19751;BME280;4663;49.120;9.730;2023-02-13T15:12:33;99934.81;;;3.54;71.14
19751;BME280;4663;49.120;9.730;2023-02-13T15:15:00;99933.41;;;3.63;70.72
19751;BME280;4663;49.120;9.730;2023-02-13T15:17:28;99937.63;;;3.37;71.10
19751;BME280;4663;49.120;9.730;2023-02-13T15:20:07;99941.59;;;3.46;71.14
19751;BME280;4663;49.120;9.730;2023-02-13T15:22:39;99944.97;;;3.33;71.16
19751;BME280;4663;49.120;9.730;2023-02-13T15:25:07;99945.22;;;3.44;71.02
19751;BME280;4663;49.120;9.730;2023-02-13T15:27:37;99948.19;;;3.69;70.56
19751;BME280;4663;49.120;9.730;2023-02-13T15:30:20;99940.13;;;3.40;70.67
19751;BME280;4663;49.120;9.730;2023-02-13T15:32:59;99941.31;;;3.19;71.37
19751;BME280;4663;49.120;9.730;2023-02-13T15:37:51;99935.00;;;3.21;71.72
19751;BME280;4663;49.120;9.730;2023-02-13T15:42:49;99949.03;;;2.93;72.35
19751;BME280;4663;49.120;9.730;2023-02-13T15:45:16;99949.16;;;2.92;72.32
19751;BME280;4663;49.120;9.730;2023-02-13T15:47:46;99951.34;;;2.69;72.87
19751;BME280;4663;49.120;9.730;2023-02-13T15:50:20;99949.41;;;2.87;72.61
19751;BME280;4663;49.120;9.730;2023-02-13T15:52:49;99946.75;;;2.71;72.74
19751;BME280;4663;49.120;9.730;2023-02-13T15:55:22;99957.72;;;2.66;72.92
19751;BME280;4663;49.120;9.730;2023-02-13T15:57:48;99951.75;;;2.61;73.04
19751;BME280;4663;49.120;9.730;2023-02-13T16:00:26;99942.66;;;2.33;73.58
19751;BME280;4663;49.120;9.730;2023-02-13T16:02:53;99944.38;;;2.66;73.24
19751;BME280;4663;49.120;9.730;2023-02-13T16:05:19;99945.41;;;2.48;73.39
19751;BME280;4663;49.120;9.730;2023-02-13T16:07:51;99955.13;;;2.33;73.91
19751;BME280;4663;49.120;9.730;2023-02-13T16:10:30;99955.28;;;2.46;73.60
19751;BME280;4663;49.120;9.730;2023-02-13T16:12:58;99959.75;;;2.29;74.08
19751;BME280;4663;49.120;9.730;2023-02-13T16:15:27;99963.91;;;2.19;74.37
19751;BME280;4663;49.120;9.730;2023-02-13T16:17:54;99963.31;;;2.30;74.27
19751;BME280;4663;49.120;9.730;2023-02-13T16:20:25;99960.81;;;2.10;74.84
19751;BME280;4663;49.120;9.730;2023-02-13T16:25:24;99961.78;;;1.92;75.37